Terminal Aerodrome Forecast
Issued by NWS Sioux Falls, SD

Home | Current Version | Previous Version | Graphics & Text | Print | Product List | Glossary On
Versions: 1 2 3 4 5 6 7 8 9 10 11 12 13 14 15 16 17 18 19 20 21 22 23 24 25
000
FTUS43 KFSD 181131
TAFSUX
TAF
KSUX 181131Z 1812/1912 36009KT P6SM OVC020
     FM181400 01005KT P6SM BKN015
      TEMPO 1814/1816 SCT015
     FM181600 VRB03KT P6SM SCT015
     FM181800 16008KT P6SM SKC=

USA.gov is the U.S. government's official web portal to all federal, state and local government web resources and services.